Terminal Aerodrome Forecast
Issued by NWS

Home | Current Version | Previous Version | Text Only | Print | Product List | Glossary On
Versions: 1 2 3 4 5 6 7 8 9 10 11 12 13
000
FTUS45 KRIW 221720
TAFBPI
TAF
KBPI 221720Z 2218/2318 VRB06KT P6SM SKC
     FM222200 VRB06G14KT P6SM VCSH SCT060
     FM230200 31008KT P6SM FEW060
     FM231200 35010KT P6SM VCSH FEW060 SCT100=

USA.gov is the U.S. government's official web portal to all federal, state and local government web resources and services.